Time;durP1;ratioP1;P1;durP2;ratioP2;P2;SDS_P1;SDS_P2;PMS_P1;PMS_P2;Temp;Humidity;BMP_temperature;BMP_pressure;BME280_temperature;BME280_humidity;BME280_pressure;Samples;Min_cycle;Max_cycle;Signal;HPM_P1;HPM_P2
2022/11/24 00:01:39;;;;;;;6.00;1.20;;;8.00;99.90;;;;;;5054702;28;20028;-75
2022/11/24 00:04:05;;;;;;;2.20;0.80;;;8.00;99.90;;;;;;5072727;28;20050;-75
2022/11/24 00:06:33;;;;;;;6.95;2.22;;;7.90;99.90;;;;;;5054494;28;20469;-76
2022/11/24 00:09:00;;;;;;;4.35;1.80;;;7.80;99.90;;;;;;5054637;28;20051;-76
2022/11/24 00:11:32;;;;;;;8.50;2.13;;;7.70;99.90;;;;;;5072820;28;20017;-76
2022/11/24 00:14:00;;;;;;;7.97;1.13;;;7.70;99.90;;;;;;5072424;28;20074;-76
2022/11/24 00:16:32;;;;;;;5.53;1.48;;;7.60;99.90;;;;;;5072528;28;20044;-76
2022/11/24 00:18:59;;;;;;;10.23;2.35;;;7.70;99.90;;;;;;5054139;28;20373;-75
2022/11/24 00:21:27;;;;;;;7.80;2.22;;;7.60;99.90;;;;;;5072625;28;20017;-76
2022/11/24 00:23:53;;;;;;;8.35;1.58;;;7.50;99.90;;;;;;5072328;28;20115;-76
2022/11/24 00:26:20;;;;;;;4.88;1.98;;;7.50;99.90;;;;;;5072424;28;20108;-76
2022/11/24 00:28:48;;;;;;;7.72;1.88;;;7.40;99.90;;;;;;5078707;28;20165;-77
2022/11/24 00:31:29;;;;;;;8.80;2.47;;;7.40;99.90;;;;;;5090226;28;20024;-76
2022/11/24 00:34:01;;;;;;;6.65;1.50;;;7.40;99.90;;;;;;5082715;28;20317;-76
2022/11/24 00:36:30;;;;;;;1.90;1.63;;;7.40;99.90;;;;;;5071623;28;20078;-76
2022/11/24 00:38:58;;;;;;;8.90;2.03;;;7.50;99.90;;;;;;5052596;28;20028;-76
2022/11/24 00:41:24;;;;;;;3.58;1.98;;;7.50;99.90;;;;;;5069583;28;20032;-77
2022/11/24 00:43:50;;;;;;;1.88;1.70;;;7.40;99.90;;;;;;5069321;28;20024;-76
2022/11/24 00:46:16;;;;;;;8.38;2.42;;;7.40;99.90;;;;;;5079024;28;20392;-75
2022/11/24 00:48:42;;;;;;;5.07;1.30;;;7.40;99.90;;;;;;5089996;28;20024;-75
2022/11/24 00:51:11;;;;;;;3.50;1.88;;;7.40;99.90;;;;;;5088877;28;20120;-76
2022/11/24 00:53:36;;;;;;;3.65;1.60;;;7.40;99.90;;;;;;5089194;28;20040;-75
2022/11/24 00:56:02;;;;;;;3.88;1.02;;;7.40;99.90;;;;;;5089391;28;20457;-78
2022/11/24 00:58:29;;;;;;;3.35;1.70;;;7.50;99.90;;;;;;5089407;28;20020;-76
2022/11/24 01:00:55;;;;;;;8.55;2.78;;;7.40;99.90;;;;;;5088566;28;20242;-76
2022/11/24 01:03:21;;;;;;;8.00;1.60;;;7.50;99.90;;;;;;5089115;28;20019;-76
2022/11/24 01:05:47;;;;;;;7.57;2.30;;;7.50;99.90;;;;;;5088417;28;20053;-75
2022/11/24 01:08:13;;;;;;;7.20;2.45;;;7.50;99.90;;;;;;5088535;28;20094;-76
2022/11/24 01:10:39;;;;;;;13.75;2.78;;;7.50;99.90;;;;;;5070615;28;20675;-76
2022/11/24 01:13:05;;;;;;;4.30;1.58;;;7.40;99.90;;;;;;5089491;28;20032;-76
2022/11/24 01:15:30;;;;;;;5.07;1.15;;;7.30;99.90;;;;;;5088592;28;20047;-76
2022/11/24 01:17:56;;;;;;;12.05;3.42;;;7.40;99.90;;;;;;5088894;28;20505;-77
2022/11/24 01:20:22;;;;;;;15.98;2.63;;;7.40;99.90;;;;;;5088355;28;20121;-75
2022/11/24 01:22:48;;;;;;;5.68;1.27;;;7.50;99.90;;;;;;5078991;28;20105;-75
2022/11/24 01:25:15;;;;;;;4.72;1.70;;;7.60;99.90;;;;;;5068345;28;20470;-76
2022/11/24 01:27:40;;;;;;;6.70;1.40;;;7.60;99.90;;;;;;5068420;28;20493;-75
2022/11/24 01:30:07;;;;;;;6.85;1.73;;;7.60;99.90;;;;;;5068234;28;20040;-76
2022/11/24 01:32:35;;;;;;;6.32;2.25;;;7.50;99.90;;;;;;5067992;28;20597;-75
2022/11/24 01:35:01;;;;;;;3.55;1.10;;;7.40;99.90;;;;;;5068179;28;20516;-75
2022/11/24 01:37:26;;;;;;;5.78;2.85;;;7.40;99.90;;;;;;5068282;28;20037;-76
2022/11/24 01:39:52;;;;;;;2.95;1.60;;;7.40;99.90;;;;;;5068806;28;20546;-78
2022/11/24 01:42:18;;;;;;;5.70;1.08;;;;;;;;;;5067862;28;20036;-76
2022/11/24 01:44:43;;;;;;;3.90;0.90;;;7.40;99.90;;;;;;5051728;28;20036;-75
2022/11/24 01:47:32;;;;;;;11.25;2.30;;;7.30;99.90;;;;;;5067603;28;20020;-76
2022/11/24 01:50:00;;;;;;;2.83;1.33;;;7.30;99.90;;;;;;5049402;28;20460;-76
2022/11/24 01:52:35;;;;;;;8.57;1.70;;;7.30;99.90;;;;;;5067871;28;20043;-75
2022/11/24 01:55:08;;;;;;;10.68;2.15;;;7.40;99.90;;;;;;5050064;28;20077;-76
2022/11/24 01:57:42;;;;;;;11.05;2.60;;;7.40;99.90;;;;;;5067899;28;20067;-76
2022/11/24 02:00:11;;;;;;;2.20;1.00;;;7.30;99.90;;;;;;5086973;28;20472;-76
2022/11/24 02:02:38;;;;;;;5.32;1.95;;;7.20;99.90;;;;;;5087495;28;20039;-76
2022/11/24 02:05:35;;;;;;;8.27;1.38;;;7.10;99.90;;;;;;5084905;28;20019;-76
2022/11/24 02:08:01;;;;;;;12.35;2.33;;;7.30;99.90;;;;;;5050027;28;20086;-76
2022/11/24 02:10:27;;;;;;;4.07;1.30;;;7.20;99.90;;;;;;5068545;28;20025;-76
2022/11/24 02:12:56;;;;;;;4.55;1.55;;;7.30;99.90;;;;;;5066636;28;20032;-76
2022/11/24 02:15:23;;;;;;;8.20;1.48;;;7.20;99.90;;;;;;5067578;28;20016;-77
2022/11/24 02:17:48;;;;;;;2.53;1.10;;;7.20;99.90;;;;;;5049234;28;20025;-75
2022/11/24 02:20:15;;;;;;;8.32;1.92;;;7.10;99.90;;;;;;5067037;28;20024;-76
2022/11/24 02:22:59;;;;;;;6.20;1.10;;;7.10;99.90;;;;;;5067279;28;20025;-76
2022/11/24 02:26:04;;;;;;;12.73;1.67;;;7.00;99.90;;;;;;5049366;28;20032;-76
2022/11/24 02:28:30;;;;;;;2.42;1.58;;;7.20;99.90;;;;;;5028756;28;20127;-76
2022/11/24 02:30:58;;;;;;;14.23;2.03;;;7.20;99.90;;;;;;5067749;28;20153;-76
2022/11/24 02:33:24;;;;;;;16.88;3.55;;;7.40;99.90;;;;;;5068293;28;20082;-76
2022/11/24 02:35:51;;;;;;;4.50;1.77;;;7.40;99.90;;;;;;5067824;28;20025;-76
2022/11/24 02:38:16;;;;;;;16.58;3.42;;;7.40;99.90;;;;;;5066916;28;20028;-76
2022/11/24 02:40:46;;;;;;;13.55;3.05;;;7.50;99.90;;;;;;5067018;28;20021;-76
2022/11/24 02:43:19;;;;;;;11.32;2.15;;;7.30;99.90;;;;;;5066490;28;20263;-75
2022/11/24 02:45:45;;;;;;;12.70;2.05;;;7.40;99.90;;;;;;5048568;28;20392;-77
2022/11/24 02:48:15;;;;;;;8.20;1.25;;;7.40;99.90;;;;;;5066131;28;20075;-76
2022/11/24 02:50:41;;;;;;;6.13;1.92;;;7.30;99.90;;;;;;5066030;28;20071;-78
2022/11/24 02:53:07;;;;;;;5.75;1.63;;;7.20;99.90;;;;;;5066330;28;20036;-76
2022/11/24 02:55:32;;;;;;;10.90;2.03;;;7.20;99.90;;;;;;5066187;28;20455;-77
2022/11/24 02:57:58;;;;;;;8.63;1.80;;;7.30;99.90;;;;;;5067167;28;20284;-77
2022/11/24 03:00:24;;;;;;;9.43;1.60;;;7.30;99.90;;;;;;5048796;28;20048;-77
2022/11/24 03:02:49;;;;;;;6.13;2.00;;;7.30;99.90;;;;;;5067294;28;20024;-82
2022/11/24 03:05:15;;;;;;;7.57;1.80;;;7.30;99.90;;;;;;5048253;28;20534;-82
2022/11/24 03:07:41;;;;;;;10.75;2.50;;;7.30;99.90;;;;;;5066490;28;20397;-76
2022/11/24 03:10:08;;;;;;;5.70;1.08;;;7.30;99.90;;;;;;5066728;28;20052;-77
2022/11/24 03:12:33;;;;;;;3.03;2.08;;;7.60;99.90;;;;;;5048840;28;20036;-76
2022/11/24 03:14:59;;;;;;;8.38;2.70;;;7.40;99.90;;;;;;5066668;28;20031;-76
2022/11/24 03:17:25;;;;;;;8.60;2.90;;;7.40;99.90;;;;;;5066726;28;20059;-77
2022/11/24 03:19:50;;;;;;;12.10;1.90;;;7.50;99.90;;;;;;5066704;28;20067;-77
2022/11/24 03:22:16;;;;;;;8.88;1.73;;;7.50;99.90;;;;;;5048243;28;20540;-77
2022/11/24 03:24:42;;;;;;;10.95;2.83;;;7.50;99.90;;;;;;5068392;28;20017;-77
2022/11/24 03:27:07;;;;;;;14.40;2.28;;;;;;;;;;5052502;28;20031;-77
2022/11/24 03:29:33;;;;;;;7.10;1.40;;;7.40;99.90;;;;;;5052517;28;20024;-76
2022/11/24 03:31:59;;;;;;;3.95;2.35;;;7.40;99.90;;;;;;5052084;28;20112;-76
2022/11/24 03:34:25;;;;;;;7.50;3.25;;;7.30;99.90;;;;;;5070182;28;20469;-78
2022/11/24 03:36:51;;;;;;;9.02;1.40;;;7.30;99.90;;;;;;5070207;28;20423;-76
2022/11/24 03:39:17;;;;;;;3.60;1.20;;;7.20;99.90;;;;;;5052178;28;20031;-77
2022/11/24 03:41:43;;;;;;;3.50;2.05;;;7.30;99.90;;;;;;5070553;28;20099;-77
2022/11/24 03:44:08;;;;;;;7.03;1.98;;;7.30;99.90;;;;;;5070114;28;20065;-77
2022/11/24 03:46:34;;;;;;;12.20;1.40;;;7.40;99.90;;;;;;5070360;28;20440;-76
2022/11/24 03:48:59;;;;;;;8.95;1.95;;;7.40;99.90;;;;;;5051955;28;20139;-76
2022/11/24 03:51:25;;;;;;;4.43;1.40;;;;;;;;;;5051480;28;20311;-78
2022/11/24 03:53:51;;;;;;;9.10;2.63;;;7.50;99.90;;;;;;5070080;28;20554;-77
2022/11/24 03:56:17;;;;;;;12.23;3.03;;;7.60;99.90;;;;;;5053203;28;20016;-77
2022/11/24 03:58:42;;;;;;;7.88;1.38;;;7.50;99.90;;;;;;5071589;28;20020;-76
2022/11/24 04:01:08;;;;;;;8.77;1.75;;;7.50;99.90;;;;;;5053465;28;20029;-76
2022/11/24 04:03:34;;;;;;;11.30;1.67;;;7.50;99.90;;;;;;5053068;28;20024;-76
2022/11/24 04:05:59;;;;;;;8.23;2.35;;;7.50;99.90;;;;;;5053259;28;20771;-76
2022/11/24 04:08:25;;;;;;;9.55;2.53;;;7.50;99.90;;;;;;5054059;28;20564;-76
2022/11/24 04:10:53;;;;;;;7.22;2.88;;;7.50;99.90;;;;;;5072478;28;20074;-77
2022/11/24 04:13:23;;;;;;;5.13;1.58;;;7.50;99.90;;;;;;5054758;28;20032;-77
2022/11/24 04:15:50;;;;;;;11.90;2.85;;;7.50;99.90;;;;;;5072454;28;20067;-77
2022/11/24 04:18:15;;;;;;;2.05;0.88;;;7.50;99.90;;;;;;5054631;28;20024;-79
2022/11/24 04:20:41;;;;;;;5.78;0.75;;;7.50;99.90;;;;;;5054219;28;20031;-77
2022/11/24 04:23:08;;;;;;;5.63;2.35;;;7.60;99.90;;;;;;5072483;28;20082;-78
2022/11/24 04:25:34;;;;;;;6.40;1.73;;;7.50;99.90;;;;;;5072472;28;20100;-76
2022/11/24 04:28:00;;;;;;;4.05;1.73;;;;;;;;;;5072586;28;20534;-76
2022/11/24 04:30:27;;;;;;;9.73;2.28;;;7.60;99.90;;;;;;5054195;28;20025;-76
2022/11/24 04:32:53;;;;;;;10.15;2.58;;;7.70;99.90;;;;;;5072225;28;20028;-76
2022/11/24 04:35:19;;;;;;;8.32;2.65;;;7.60;99.90;;;;;;5053380;28;20111;-76
2022/11/24 04:37:45;;;;;;;6.03;1.98;;;7.60;99.90;;;;;;5071986;28;20051;-76
2022/11/24 04:40:11;;;;;;;9.65;2.25;;;7.60;99.90;;;;;;5072506;28;20097;-76
2022/11/24 04:42:37;;;;;;;3.08;1.73;;;7.50;99.90;;;;;;5053936;28;20120;-77
2022/11/24 04:45:04;;;;;;;6.50;2.42;;;7.40;99.90;;;;;;5072120;28;20111;-78
2022/11/24 04:47:30;;;;;;;6.35;2.45;;;7.40;99.90;;;;;;5053913;28;20021;-76
2022/11/24 04:49:56;;;;;;;5.72;1.45;;;7.40;99.90;;;;;;5053411;28;20082;-77
2022/11/24 04:52:23;;;;;;;8.52;2.78;;;7.30;99.90;;;;;;5071748;28;20388;-77
2022/11/24 04:54:49;;;;;;;7.43;1.50;;;7.30;99.90;;;;;;5053782;28;20048;-76
2022/11/24 04:57:20;;;;;;;4.38;1.80;;;7.30;99.90;;;;;;5072029;28;20063;-76
2022/11/24 04:59:46;;;;;;;6.25;1.63;;;7.20;99.90;;;;;;5053737;28;20056;-78
2022/11/24 05:02:12;;;;;;;7.22;2.45;;;7.20;99.90;;;;;;5053859;28;20067;-77
2022/11/24 05:04:38;;;;;;;5.20;2.42;;;7.30;99.90;;;;;;5071366;28;20016;-77
2022/11/24 05:07:04;;;;;;;5.75;2.22;;;7.20;99.90;;;;;;5053634;28;20048;-77
2022/11/24 05:09:30;;;;;;;6.43;1.75;;;7.20;99.90;;;;;;5053481;28;20116;-76
2022/11/24 05:11:55;;;;;;;6.78;1.75;;;7.20;99.90;;;;;;5053439;28;20124;-76
2022/11/24 05:14:21;;;;;;;5.30;1.40;;;;;;;;;;5053622;28;20259;-76
2022/11/24 05:16:47;;;;;;;6.70;1.83;;;7.20;99.90;;;;;;5053521;28;20027;-78
2022/11/24 05:19:14;;;;;;;5.90;2.10;;;;;;;;;;5053177;28;20111;-76
2022/11/24 05:21:39;;;;;;;6.22;2.10;;;7.30;99.90;;;;;;5071317;28;20028;-77
2022/11/24 05:24:05;;;;;;;7.45;2.22;;;7.30;99.90;;;;;;5053323;28;20021;-76
2022/11/24 05:26:31;;;;;;;8.35;1.60;;;7.20;99.90;;;;;;5053193;28;20492;-77
2022/11/24 05:28:56;;;;;;;3.85;2.03;;;7.30;99.90;;;;;;5052879;28;20016;-76
2022/11/24 05:31:22;;;;;;;3.72;1.67;;;7.30;99.90;;;;;;5057842;28;20036;-76
2022/11/24 05:33:48;;;;;;;9.02;1.60;;;7.20;99.90;;;;;;5071069;28;20027;-76
2022/11/24 05:38:58;;;;;;;5.38;1.20;;;7.30;99.90;;;;;;5071141;28;20066;-76
2022/11/24 05:41:23;;;;;;;3.97;1.95;;;7.30;99.90;;;;;;5053026;28;20066;-77
2022/11/24 05:43:49;;;;;;;4.03;1.20;;;7.30;99.90;;;;;;5070098;28;20035;-76
2022/11/24 05:46:15;;;;;;;10.77;0.90;;;7.30;99.90;;;;;;5051703;28;20024;-76
2022/11/24 05:48:40;;;;;;;14.93;1.40;;;7.30;99.90;;;;;;5052856;28;20028;-77
2022/11/24 05:51:06;;;;;;;8.15;1.85;;;7.40;99.90;;;;;;5052476;28;20094;-77
2022/11/24 05:53:32;;;;;;;11.18;1.60;;;7.30;99.90;;;;;;5052974;28;20037;-76
2022/11/24 05:55:57;;;;;;;8.55;1.27;;;7.30;99.90;;;;;;5051762;28;20020;-76
2022/11/24 05:58:23;;;;;;;8.15;1.38;;;7.30;99.90;;;;;;5073446;28;20130;-77
2022/11/24 06:00:48;;;;;;;3.63;1.52;;;7.30;99.90;;;;;;5089028;28;20468;-77
2022/11/24 06:03:14;;;;;;;5.60;1.48;;;7.40;99.90;;;;;;5070728;28;20433;-77
2022/11/24 06:05:45;;;;;;;1.50;1.30;;;7.40;99.90;;;;;;5070818;28;20430;-78
2022/11/24 06:08:11;;;;;;;6.57;2.03;;;7.40;99.90;;;;;;5089238;28;20027;-77
2022/11/24 06:10:37;;;;;;;4.20;1.77;;;9.60;99.90;;;;;;5071667;28;20028;-79
2022/11/24 06:13:06;;;;;;;11.00;1.98;;;7.30;99.90;;;;;;5089859;28;20028;-78
2022/11/24 06:15:33;;;;;;;9.55;1.60;;;7.10;99.90;;;;;;5072595;28;20157;-77
2022/11/24 06:17:59;;;;;;;2.97;1.00;;;7.10;99.90;;;;;;5072755;28;20028;-77
2022/11/24 06:20:25;;;;;;;8.30;2.70;;;7.10;99.90;;;;;;5090093;28;20430;-77
2022/11/24 06:22:51;;;;;;;5.38;0.90;;;7.00;99.90;;;;;;5072555;28;20110;-79
2022/11/24 06:25:17;;;;;;;5.60;2.03;;;6.90;99.90;;;;;;5072706;28;20024;-78
2022/11/24 06:27:43;;;;;;;4.20;2.50;;;6.90;99.90;;;;;;5072485;28;20077;-77
2022/11/24 06:30:09;;;;;;;11.00;1.90;;;6.90;99.90;;;;;;5090660;28;20350;-77
2022/11/24 06:32:35;;;;;;;2.97;2.05;;;;;;;;;;5090323;28;20028;-77
2022/11/24 06:35:01;;;;;;;7.93;1.55;;;7.10;99.90;;;;;;5072181;28;20483;-77
2022/11/24 06:37:27;;;;;;;15.57;1.92;;;7.20;99.90;;;;;;5071923;28;20028;-76
2022/11/24 06:39:53;;;;;;;6.30;1.33;;;7.30;99.90;;;;;;5072291;28;20107;-77
2022/11/24 06:42:20;;;;;;;14.35;1.10;;;;;;;;;;5052877;28;20054;-79
2022/11/24 06:44:48;;;;;;;4.55;1.42;;;7.50;99.90;;;;;;5052071;28;20035;-79
2022/11/24 06:47:14;;;;;;;10.90;2.45;;;7.60;99.90;;;;;;5052027;28;20032;-78
2022/11/24 06:49:40;;;;;;;5.05;1.02;;;7.70;99.90;;;;;;5051816;28;20017;-80
2022/11/24 06:52:06;;;;;;;4.75;1.10;;;7.70;99.90;;;;;;5044266;28;20040;-76
2022/11/24 06:54:31;;;;;;;9.95;2.45;;;7.70;99.90;;;;;;5068882;28;20266;-76
2022/11/24 06:56:58;;;;;;;5.65;0.95;;;7.70;99.90;;;;;;5049523;28;20040;-76
2022/11/24 06:59:25;;;;;;;11.65;2.65;;;8.70;99.90;;;;;;5077266;28;20035;-77
2022/11/24 07:01:51;;;;;;;6.72;1.20;;;7.90;99.90;;;;;;5068307;28;20051;-75
2022/11/24 07:04:17;;;;;;;6.00;1.52;;;8.00;99.90;;;;;;5073094;28;20055;-75
2022/11/24 07:06:43;;;;;;;4.78;1.50;;;8.00;99.90;;;;;;5086480;28;20130;-76
2022/11/24 07:09:10;;;;;;;4.22;0.93;;;8.10;99.90;;;;;;5068157;28;20440;-80
2022/11/24 07:11:36;;;;;;;4.82;1.23;;;8.00;99.90;;;;;;5075033;28;20464;-80
2022/11/24 07:14:02;;;;;;;3.10;1.98;;;7.90;99.90;;;;;;5066862;28;20040;-76
2022/11/24 07:16:28;;;;;;;6.60;1.90;;;7.70;99.90;;;;;;5066586;28;20063;-75
2022/11/24 07:18:55;;;;;;;6.80;0.95;;;7.70;99.90;;;;;;5066811;28;20446;-74
2022/11/24 07:21:22;;;;;;;4.70;1.00;;;7.50;99.90;;;;;;5066891;28;20052;-78
2022/11/24 07:23:53;;;;;;;6.40;2.63;;;7.40;99.90;;;;;;5066359;28;20017;-74
2022/11/24 07:26:19;;;;;;;6.13;1.88;;;7.40;99.90;;;;;;5066194;28;20035;-75
2022/11/24 07:28:45;;;;;;;5.70;1.05;;;7.30;99.90;;;;;;5048685;28;20028;-74
2022/11/24 07:31:13;;;;;;;2.35;0.93;;;7.20;99.90;;;;;;5066913;28;20112;-74
2022/11/24 07:33:39;;;;;;;8.75;2.67;;;7.20;99.90;;;;;;5066349;28;20072;-76
2022/11/24 07:36:06;;;;;;;4.10;0.88;;;7.20;99.90;;;;;;5066039;28;20028;-74
2022/11/24 07:38:33;;;;;;;4.03;0.73;;;7.30;99.90;;;;;;5066858;28;20029;-73
2022/11/24 07:41:00;;;;;;;8.30;1.40;;;7.30;99.90;;;;;;5048483;28;20020;-75
2022/11/24 07:43:26;;;;;;;4.07;0.95;;;7.30;99.90;;;;;;5066326;28;20211;-75
2022/11/24 07:45:52;;;;;;;2.28;1.52;;;7.30;99.90;;;;;;5066433;28;20056;-75
2022/11/24 07:48:18;;;;;;;6.85;2.40;;;7.40;99.90;;;;;;5067804;28;20074;-75
2022/11/24 07:50:44;;;;;;;4.68;1.33;;;7.40;99.90;;;;;;5065942;28;20052;-74
2022/11/24 07:53:10;;;;;;;1.67;0.75;;;7.40;99.90;;;;;;5066232;28;20079;-75
2022/11/24 07:55:36;;;;;;;3.70;1.40;;;7.50;99.90;;;;;;5049234;28;20501;-75
2022/11/24 07:58:01;;;;;;;3.35;1.75;;;7.50;99.90;;;;;;5049989;28;20085;-75
2022/11/24 08:00:27;;;;;;;7.97;1.15;;;7.60;99.90;;;;;;5049279;28;20021;-76
2022/11/24 08:02:53;;;;;;;9.38;1.83;;;7.70;99.90;;;;;;5067155;28;20028;-77
2022/11/24 08:05:19;;;;;;;7.07;0.95;;;7.70;99.90;;;;;;5048689;28;20025;-77
2022/11/24 08:07:44;;;;;;;8.65;1.63;;;7.70;99.90;;;;;;5048967;28;20020;-75
2022/11/24 08:10:10;;;;;;;4.20;1.52;;;7.80;99.90;;;;;;5066117;28;20029;-76
2022/11/24 08:12:36;;;;;;;8.95;1.52;;;7.80;99.90;;;;;;5068561;28;20036;-74
2022/11/24 08:15:01;;;;;;;5.43;1.17;;;7.90;99.90;;;;;;5051999;28;20032;-75
2022/11/24 08:17:27;;;;;;;2.65;1.00;;;8.00;99.90;;;;;;5069410;28;20392;-73
2022/11/24 08:19:53;;;;;;;3.50;1.90;;;8.10;99.90;;;;;;5051369;28;20024;-74
2022/11/24 08:22:19;;;;;;;3.00;0.65;;;8.20;99.90;;;;;;5069724;28;20170;-76
2022/11/24 08:24:47;;;;;;;3.35;1.10;;;8.20;99.90;;;;;;5051438;28;20021;-74
2022/11/24 08:27:14;;;;;;;8.27;1.33;;;8.30;99.90;;;;;;5052046;28;20025;-75
2022/11/24 08:29:41;;;;;;;2.35;1.25;;;8.40;99.90;;;;;;5069344;28;20040;-76
2022/11/24 08:32:09;;;;;;;4.32;2.45;;;8.30;99.90;;;;;;5051184;28;20047;-76
2022/11/24 08:34:35;;;;;;;1.70;0.82;;;8.40;99.90;;;;;;5069058;28;20024;-76
2022/11/24 08:37:05;;;;;;;5.97;1.05;;;8.40;99.90;;;;;;5051096;28;20024;-76
2022/11/24 08:39:31;;;;;;;1.30;0.73;;;8.40;99.90;;;;;;5051060;28;20032;-75
2022/11/24 08:41:57;;;;;;;2.83;0.60;;;8.50;99.90;;;;;;5069061;28;20032;-76
2022/11/24 08:44:22;;;;;;;0.52;0.50;;;8.70;99.90;;;;;;5068829;28;20040;-76
2022/11/24 08:46:49;;;;;;;10.95;1.85;;;8.90;99.90;;;;;;5050959;28;20554;-77
2022/11/24 08:49:15;;;;;;;3.20;0.77;;;8.90;99.90;;;;;;5070728;28;20085;-77
2022/11/24 08:51:42;;;;;;;4.95;1.27;;;8.90;99.90;;;;;;5089145;28;20056;-75
2022/11/24 08:54:09;;;;;;;1.38;0.70;;;8.90;99.90;;;;;;5070667;28;20583;-76
2022/11/24 08:56:34;;;;;;;1.48;1.38;;;8.90;99.90;;;;;;5088956;28;20061;-75
2022/11/24 08:59:01;;;;;;;1.08;0.88;;;8.90;99.90;;;;;;5070877;28;20122;-76
2022/11/24 09:01:27;;;;;;;7.03;2.20;;;9.10;99.90;;;;;;5070363;28;20393;-75
2022/11/24 09:03:53;;;;;;;7.32;1.85;;;9.20;99.90;;;;;;5088097;28;20233;-77
2022/11/24 09:06:22;;;;;;;3.42;0.63;;;9.20;99.90;;;;;;5050543;28;20194;-75
2022/11/24 09:08:48;;;;;;;2.80;0.95;;;9.20;99.90;;;;;;5050793;28;20469;-77
2022/11/24 09:11:15;;;;;;;2.05;0.77;;;9.20;99.90;;;;;;5050634;28;20028;-77
2022/11/24 09:13:42;;;;;;;1.65;0.98;;;9.30;99.90;;;;;;5050721;28;20036;-76
2022/11/24 09:16:11;;;;;;;0.65;0.63;;;9.40;99.90;;;;;;5049917;28;20532;-77
2022/11/24 09:18:37;;;;;;;2.55;0.50;;;9.50;99.90;;;;;;5050178;28;20040;-77
2022/11/24 09:21:10;;;;;;;2.15;1.48;;;9.50;99.90;;;;;;5068114;28;20021;-76
2022/11/24 09:23:36;;;;;;;2.83;0.70;;;9.60;99.90;;;;;;5049565;28;20021;-77
2022/11/24 09:26:07;;;;;;;1.60;0.73;;;9.50;99.90;;;;;;5050525;28;20035;-76
2022/11/24 09:28:33;;;;;;;2.50;0.70;;;9.30;99.90;;;;;;5068480;28;20054;-77
2022/11/24 09:31:01;;;;;;;5.68;1.63;;;9.30;99.90;;;;;;5050251;28;20039;-76
2022/11/24 09:33:27;;;;;;;4.25;1.13;;;9.30;99.90;;;;;;5068132;28;20097;-77
2022/11/24 09:35:53;;;;;;;1.13;0.40;;;9.20;99.90;;;;;;5050423;28;20477;-76
2022/11/24 09:38:19;;;;;;;5.47;1.80;;;9.20;99.90;;;;;;5067934;28;20051;-76
2022/11/24 09:40:44;;;;;;;1.17;0.88;;;9.30;99.90;;;;;;5050187;28;20508;-76
2022/11/24 09:43:25;;;;;;;6.97;0.70;;;9.20;99.90;;;;;;5068399;28;20107;-76
2022/11/24 09:45:59;;;;;;;4.65;0.95;;;9.20;99.90;;;;;;5049834;28;20028;-76
2022/11/24 09:48:30;;;;;;;6.93;1.17;;;9.20;99.90;;;;;;5081430;28;20489;-76
2022/11/24 09:51:00;;;;;;;3.28;0.73;;;9.30;99.90;;;;;;5069672;28;20102;-76
2022/11/24 09:53:47;;;;;;;1.85;0.85;;;9.30;99.90;;;;;;5088202;28;20028;-77
2022/11/24 09:56:23;;;;;;;8.82;0.70;;;9.40;99.90;;;;;;5069955;28;20031;-76
2022/11/24 09:59:26;;;;;;;2.17;1.30;;;9.50;99.90;;;;;;5069335;28;20063;-77
2022/11/24 10:01:52;;;;;;;2.47;1.38;;;9.40;99.90;;;;;;5065501;28;20135;-78
2022/11/24 10:04:27;;;;;;;1.88;0.93;;;9.40;99.90;;;;;;5069359;28;20298;-78
2022/11/24 10:07:21;;;;;;;3.88;0.70;;;9.40;99.90;;;;;;5069767;28;20523;-76
2022/11/24 10:09:52;;;;;;;6.00;0.88;;;9.40;99.90;;;;;;5087650;28;20480;-76
2022/11/24 10:12:55;;;;;;;4.18;0.45;;;11.90;99.90;;;;;;5069077;28;20392;-76
2022/11/24 10:15:43;;;;;;;5.97;1.00;;;9.40;99.90;;;;;;5069424;28;20024;-76
2022/11/24 10:18:38;;;;;;;3.03;2.00;;;9.50;99.90;;;;;;5069329;28;20028;-76
2022/11/24 10:21:45;;;;;;;4.60;1.80;;;9.60;99.90;;;;;;5087906;28;20032;-76
2022/11/24 10:24:38;;;;;;;1.45;1.35;;;9.70;99.90;;;;;;5073802;28;20047;-76
2022/11/24 10:27:23;;;;;;;2.03;1.02;;;9.70;99.90;;;;;;5068871;28;20036;-76
2022/11/24 10:29:51;;;;;;;7.20;1.73;;;9.80;99.90;;;;;;5087393;28;20013;-76
2022/11/24 10:32:34;;;;;;;1.50;1.00;;;10.00;99.90;;;;;;5087563;28;20488;-76
2022/11/24 10:35:16;;;;;;;2.08;0.68;;;10.10;99.90;;;;;;5068206;28;20145;-77
2022/11/24 10:38:03;;;;;;;6.43;0.60;;;10.20;99.90;;;;;;5069066;28;20020;-76
2022/11/24 10:40:44;;;;;;;4.55;1.40;;;10.40;99.90;;;;;;5068866;28;20032;-75
2022/11/24 10:43:11;;;;;;;4.50;1.15;;;10.70;99.90;;;;;;5087148;28;20412;-77
2022/11/24 10:45:38;;;;;;;2.40;0.95;;;10.60;99.90;;;;;;5068858;28;20062;-77
2022/11/24 10:48:20;;;;;;;1.08;0.82;;;10.70;99.90;;;;;;5076235;28;20493;-77
2022/11/24 10:50:46;;;;;;;1.63;1.10;;;10.60;99.90;;;;;;5048558;28;20217;-76
2022/11/24 10:53:27;;;;;;;1.95;1.05;;;10.30;99.90;;;;;;5049111;28;20075;-76
2022/11/24 10:55:57;;;;;;;2.05;0.70;;;10.30;99.90;;;;;;5066892;28;20091;-76
2022/11/24 10:58:37;;;;;;;2.75;0.98;;;10.30;99.90;;;;;;5066637;28;20382;-77
2022/11/24 11:01:12;;;;;;;2.85;1.10;;;10.10;99.90;;;;;;5048839;28;20025;-76
2022/11/24 11:03:50;;;;;;;5.78;1.27;;;10.00;99.90;;;;;;5048452;28;20106;-77
2022/11/24 11:06:29;;;;;;;12.70;4.10;;;9.90;99.90;;;;;;5048807;28;20075;-77
2022/11/24 11:09:07;;;;;;;4.20;1.10;;;9.80;99.90;;;;;;5048844;28;20477;-77
2022/11/24 11:11:34;;;;;;;2.05;0.55;;;9.80;99.90;;;;;;5048424;28;20134;-76
2022/11/24 11:14:03;;;;;;;0.88;0.45;;;9.70;99.90;;;;;;5066622;28;20485;-76
2022/11/24 11:16:39;;;;;;;3.00;0.77;;;9.70;99.90;;;;;;5048307;28;20123;-78
2022/11/24 11:19:41;;;;;;;2.22;0.90;;;9.70;99.90;;;;;;5048523;28;20028;-77
2022/11/24 11:22:10;;;;;;;3.40;0.57;;;9.60;99.90;;;;;;5048671;28;20070;-77
2022/11/24 11:24:38;;;;;;;2.15;0.65;;;9.60;99.90;;;;;;5048739;28;20124;-78
2022/11/24 11:27:24;;;;;;;1.95;0.68;;;9.50;99.90;;;;;;5047987;28;20047;-77
2022/11/24 11:29:50;;;;;;;10.15;2.05;;;9.70;99.90;;;;;;5047548;28;20028;-76
2022/11/24 11:32:22;;;;;;;1.60;1.00;;;9.50;99.90;;;;;;5047697;28;20390;-77
2022/11/24 11:34:53;;;;;;;4.63;0.98;;;9.50;99.90;;;;;;5047828;28;20321;-75
2022/11/24 11:37:21;;;;;;;2.60;1.10;;;9.40;99.90;;;;;;5047443;28;20350;-77
2022/11/24 11:39:49;;;;;;;2.40;0.80;;;9.50;99.90;;;;;;5047956;28;20102;-77
2022/11/24 11:42:40;;;;;;;10.15;2.35;;;9.60;99.90;;;;;;5065934;28;20025;-76
2022/11/24 11:45:27;;;;;;;5.07;1.08;;;9.60;99.90;;;;;;5067376;28;20489;-76
2022/11/24 11:48:01;;;;;;;2.00;1.27;;;9.60;99.90;;;;;;5052215;28;20039;-76
2022/11/24 11:50:46;;;;;;;8.95;0.95;;;9.70;99.90;;;;;;5048967;28;20055;-77
2022/11/24 11:53:58;;;;;;;5.32;1.42;;;9.80;99.90;;;;;;5048434;28;20040;-76
2022/11/24 11:56:27;;;;;;;2.17;1.23;;;9.90;99.90;;;;;;4968127;28;20503;-77
2022/11/24 11:59:11;;;;;;;1.67;0.45;;;10.00;99.90;;;;;;5037437;28;20044;-77
2022/11/24 12:02:08;;;;;;;1.85;1.13;;;10.10;99.90;;;;;;5049628;28;20048;-81
2022/11/24 12:04:43;;;;;;;2.72;0.90;;;10.20;99.90;;;;;;5048845;28;20056;-76
2022/11/24 12:07:27;;;;;;;3.05;0.88;;;10.30;99.90;;;;;;5049055;28;20644;-75
2022/11/24 12:10:09;;;;;;;1.10;1.10;;;10.40;99.90;;;;;;5051933;28;20029;-76
2022/11/24 12:12:56;;;;;;;3.42;1.27;;;10.40;99.90;;;;;;5050335;28;20033;-76
2022/11/24 12:15:34;;;;;;;4.20;1.77;;;10.30;99.90;;;;;;5048125;28;20029;-77
2022/11/24 12:18:37;;;;;;;1.95;1.27;;;10.20;99.90;;;;;;5048218;28;20024;-77
2022/11/24 12:21:12;;;;;;;6.40;2.50;;;10.10;99.90;;;;;;5048090;28;20494;-77
2022/11/24 12:24:04;;;;;;;4.55;1.13;;;10.10;99.90;;;;;;5047970;28;20025;-76
2022/11/24 12:26:30;;;;;;;1.05;0.40;;;10.20;99.90;;;;;;5010125;28;20063;-75
2022/11/24 12:29:07;;;;;;;3.13;0.93;;;10.20;99.90;;;;;;5047742;28;20079;-75
2022/11/24 12:31:42;;;;;;;5.60;0.80;;;10.20;99.90;;;;;;5048114;28;20132;-75
2022/11/24 12:34:29;;;;;;;1.60;1.33;;;10.20;99.90;;;;;;5047412;28;20504;-76
2022/11/24 12:37:25;;;;;;;3.83;1.45;;;10.20;99.90;;;;;;5047869;28;20040;-75
2022/11/24 12:40:15;;;;;;;4.13;0.50;;;10.20;99.90;;;;;;5047834;28;20021;-76
2022/11/24 12:43:18;;;;;;;1.92;1.13;;;10.10;99.90;;;;;;5047505;28;20032;-76
2022/11/24 12:45:52;;;;;;;2.15;0.60;;;9.90;99.90;;;;;;5047745;28;20029;-75
2022/11/24 12:48:41;;;;;;;3.20;0.77;;;9.90;99.90;;;;;;5061848;28;20048;-76
2022/11/24 12:51:21;;;;;;;3.17;0.77;;;9.70;99.90;;;;;;5067497;28;20378;-76
2022/11/24 12:53:49;;;;;;;6.97;1.92;;;9.70;99.90;;;;;;5067334;28;20040;-75
2022/11/24 12:56:23;;;;;;;3.53;1.00;;;9.60;99.90;;;;;;5068762;28;20017;-74
2022/11/24 12:59:16;;;;;;;11.57;1.08;;;9.60;99.90;;;;;;5066922;28;20506;-76
2022/11/24 13:01:53;;;;;;;4.68;0.68;;;9.70;99.90;;;;;;5068677;28;20033;-74
2022/11/24 13:04:37;;;;;;;1.00;0.93;;;9.70;99.90;;;;;;5068413;28;20055;-74
2022/11/24 13:07:11;;;;;;;4.93;1.10;;;9.60;99.90;;;;;;5068801;28;20027;-75
2022/11/24 13:09:37;;;;;;;3.33;0.90;;;9.60;99.90;;;;;;5068587;28;20178;-76
2022/11/24 13:12:13;;;;;;;4.88;1.02;;;9.50;99.90;;;;;;5067220;28;20123;-74
2022/11/24 13:14:42;;;;;;;11.60;1.95;;;9.60;99.90;;;;;;5068901;28;20036;-76
2022/11/24 13:17:31;;;;;;;2.75;0.75;;;9.70;99.90;;;;;;5068447;28;20068;-75